createdAt,value
2019-03-28T00:02:57.017Z,13.97
2019-03-28T00:09:12.720Z,15.50
2019-03-28T00:11:56.096Z,16.10
2019-03-28T00:14:29.226Z,16.20
2019-03-28T00:17:39.197Z,16.60
2019-03-28T00:20:44.856Z,16.37
2019-03-28T00:23:55.961Z,15.93
2019-03-28T00:26:30.650Z,15.03
2019-03-28T00:29:12.099Z,15.93
2019-03-28T00:32:22.092Z,15.00
2019-03-28T00:35:13.242Z,16.37
2019-03-28T00:37:57.234Z,17.13
2019-03-28T00:40:59.964Z,16.70
2019-03-28T00:43:44.725Z,16.63
2019-03-28T00:46:17.424Z,17.53
2019-03-28T00:49:08.570Z,18.17
2019-03-28T00:51:59.744Z,17.00
2019-03-28T00:55:09.707Z,18.03
2019-03-28T01:01:15.328Z,17.57
2019-03-28T01:04:06.173Z,16.87
2019-03-28T01:06:57.437Z,17.03
2019-03-28T01:09:48.612Z,17.37
2019-03-28T01:12:39.761Z,16.40
2019-03-28T01:15:41.696Z,16.80
2019-03-28T01:18:13.927Z,16.33
2019-03-28T01:21:08.791Z,17.40
2019-03-28T01:23:41.434Z,18.03
2019-03-28T01:29:36.373Z,16.70
2019-03-28T01:32:28.466Z,16.60
2019-03-28T01:35:19.341Z,17.00
2019-03-28T01:38:10.573Z,17.10
2019-03-28T01:41:10.270Z,17.87
2019-03-28T01:44:12.845Z,16.80
2019-03-28T01:46:55.670Z,15.90
2019-03-28T01:49:41.215Z,17.20
2019-03-28T01:52:24.770Z,17.20
2019-03-28T01:55:11.182Z,18.40
2019-03-28T02:01:08.470Z,17.80
2019-03-28T02:04:11.160Z,17.73
2019-03-28T02:06:56.110Z,15.40
2019-03-28T02:09:47.478Z,16.37
2019-03-28T02:12:49.778Z,15.77
2019-03-28T02:21:13.469Z,17.93
2019-03-28T02:23:47.789Z,16.93
2019-03-28T02:26:57.736Z,15.37
2019-03-28T02:33:34.598Z,17.20
2019-03-28T02:36:44.589Z,17.00
2019-03-28T02:39:35.715Z,15.80
2019-03-28T02:48:14.953Z,16.10
2019-03-28T02:51:36.362Z,16.30
2019-03-28T02:54:09.089Z,16.50
2019-03-28T02:57:11.703Z,16.37
2019-03-28T02:59:55.566Z,15.53
2019-03-28T03:02:40.472Z,17.13
2019-03-28T03:05:16.644Z,17.00
2019-03-28T03:08:08.130Z,16.27
2019-03-28T03:16:29.016Z,15.03
2019-03-28T03:19:31.197Z,16.37
2019-03-28T03:28:31.904Z,14.73
2019-03-28T03:31:42.209Z,15.23
2019-03-28T03:34:33.667Z,14.97
2019-03-28T03:37:27.243Z,15.77
2019-03-28T03:40:01.866Z,15.30
2019-03-28T03:43:12.244Z,16.70
2019-03-28T03:46:03.350Z,15.00
2019-03-28T03:48:46.649Z,16.27
2019-03-28T03:51:21.886Z,16.23
2019-03-28T03:54:24.142Z,16.37
2019-03-28T03:56:56.336Z,16.47
2019-03-28T04:02:43.234Z,14.73
2019-03-28T04:14:32.016Z,16.17
2019-03-28T04:23:25.623Z,16.53
2019-03-28T04:25:59.821Z,16.43
2019-03-28T04:31:48.800Z,16.07
2019-03-28T04:34:33.654Z,14.57
2019-03-28T04:42:39.104Z,15.63
2019-03-28T04:45:49.084Z,14.10
2019-03-28T04:48:51.183Z,14.47
2019-03-28T04:51:33.945Z,15.53
2019-03-28T04:54:27.386Z,15.20
2019-03-28T04:57:18.526Z,13.30
2019-03-28T05:03:38.883Z,13.93
2019-03-28T05:06:40.831Z,13.67
2019-03-28T05:11:58.458Z,15.07
2019-03-28T05:15:00.178Z,15.70
2019-03-28T05:20:42.689Z,16.23
2019-03-28T05:26:13.847Z,15.83
2019-03-28T05:29:05.416Z,14.70
2019-03-28T05:32:15.394Z,16.70
2019-03-28T05:35:18.968Z,15.60
2019-03-28T05:38:54.519Z,15.10
2019-03-28T05:42:04.500Z,15.70
2019-03-28T05:45:14.473Z,16.30
2019-03-28T05:48:44.667Z,15.97
2019-03-28T05:51:54.628Z,16.00
2019-03-28T05:54:57.040Z,15.60
2019-03-28T05:57:29.815Z,16.90
2019-03-28T06:00:40.343Z,15.97
2019-03-28T06:03:35.018Z,16.30
2019-03-28T06:06:08.741Z,16.10
2019-03-28T06:09:19.293Z,15.53
2019-03-28T06:12:31.870Z,14.87
2019-03-28T06:23:41.777Z,15.00
2019-03-28T06:26:32.937Z,16.13
2019-03-28T06:29:35.004Z,14.60
2019-03-28T06:32:29.489Z,15.40
2019-03-28T06:35:22.068Z,16.23
2019-03-28T06:41:18.756Z,15.80
2019-03-28T06:47:15.035Z,14.43
2019-03-28T06:50:36.863Z,15.50
2019-03-28T06:53:27.645Z,15.30
2019-03-28T06:56:29.996Z,15.57
2019-03-28T06:59:14.354Z,15.57
2019-03-28T07:01:59.045Z,15.43
2019-03-28T07:04:30.896Z,15.83
2019-03-28T07:07:33.222Z,15.70
2019-03-28T07:10:44.038Z,15.67
2019-03-28T07:13:16.126Z,16.67
2019-03-28T07:16:21.104Z,16.37
2019-03-28T07:18:52.948Z,14.13
2019-03-28T07:21:55.208Z,16.27
2019-03-28T07:27:29.833Z,14.80
2019-03-28T07:30:39.797Z,14.27
2019-03-28T07:33:30.992Z,15.17
2019-03-28T07:36:40.954Z,15.33
2019-03-28T07:39:42.692Z,14.30
2019-03-28T07:45:13.081Z,13.97
2019-03-28T07:47:57.866Z,14.83
2019-03-28T07:53:39.024Z,16.97
2019-03-28T07:56:49.486Z,15.10
2019-03-28T07:59:32.302Z,14.10
2019-03-28T08:02:42.270Z,14.90
2019-03-28T08:05:33.491Z,15.40
2019-03-28T08:08:38.004Z,13.77
2019-03-28T08:11:27.270Z,14.87
2019-03-28T08:14:20.963Z,14.97
2019-03-28T08:16:53.287Z,15.00
2019-03-28T08:19:56.020Z,14.43
2019-03-28T08:22:29.633Z,15.10
2019-03-28T08:31:27.409Z,13.80
2019-03-28T08:34:18.872Z,13.37
2019-03-28T08:40:40.705Z,12.60
2019-03-28T08:43:43.233Z,12.50
2019-03-28T08:46:15.215Z,11.13
2019-03-28T08:49:06.602Z,12.00
2019-03-28T08:51:57.976Z,12.80
2019-03-28T08:55:00.517Z,13.43
2019-03-28T08:57:34.476Z,12.47
2019-03-28T09:03:51.433Z,12.77
2019-03-28T09:09:28.232Z,13.23
2019-03-28T09:12:38.259Z,13.57
2019-03-28T09:21:16.619Z,14.13
2019-03-28T09:24:08.997Z,13.40
2019-03-28T09:27:10.795Z,12.70
2019-03-28T09:29:45.540Z,14.30
2019-03-28T09:35:41.795Z,17.87
2019-03-28T09:38:44.333Z,13.10
2019-03-28T09:41:16.691Z,13.47
2019-03-28T09:44:19.425Z,13.20
2019-03-28T09:47:12.514Z,11.73
2019-03-28T09:50:24.228Z,14.00
2019-03-28T09:53:45.979Z,13.87
2019-03-28T09:56:29.441Z,12.87
2019-03-28T10:01:47.788Z,13.70
2019-03-28T10:04:59.869Z,15.50
2019-03-28T10:08:09.865Z,14.40
2019-03-28T10:11:00.963Z,12.50
2019-03-28T10:13:43.965Z,15.10
2019-03-28T10:21:54.889Z,11.50
2019-03-28T10:24:38.347Z,11.70
2019-03-28T10:27:23.381Z,9.40
2019-03-28T10:29:57.061Z,10.67
2019-03-28T10:32:59.643Z,11.30
2019-03-28T10:35:44.859Z,11.40
2019-03-28T10:38:29.975Z,11.27
2019-03-28T10:41:14.744Z,10.60
2019-03-28T10:43:59.027Z,11.80
2019-03-28T10:46:32.889Z,8.70
2019-03-28T10:49:34.849Z,8.90
2019-03-28T10:55:10.827Z,10.20
2019-03-28T10:58:20.792Z,8.80
2019-03-28T11:01:11.968Z,10.23
2019-03-28T11:04:22.592Z,9.83
2019-03-28T11:07:04.771Z,9.80
2019-03-28T11:15:45.926Z,8.87
2019-03-28T11:18:37.086Z,9.07
2019-03-28T11:21:47.049Z,8.67
2019-03-28T11:24:49.594Z,10.70
2019-03-28T11:27:35.005Z,10.50
2019-03-28T11:30:40.082Z,15.00
2019-03-28T11:33:23.688Z,10.43
2019-03-28T11:39:02.874Z,9.60
2019-03-28T11:41:45.211Z,10.77
2019-03-28T11:44:47.549Z,10.53
2019-03-28T11:50:17.080Z,9.57
2019-03-28T11:53:23.497Z,9.00
2019-03-28T11:56:16.345Z,10.73
2019-03-28T12:02:00.002Z,8.90
2019-03-28T12:04:46.626Z,10.03
2019-03-28T12:07:38.309Z,9.00
2019-03-28T12:10:40.354Z,8.70
2019-03-28T12:13:12.383Z,9.07
2019-03-28T12:16:03.518Z,8.43
2019-03-28T12:19:05.638Z,8.50
2019-03-28T12:21:58.369Z,9.20
2019-03-28T12:24:49.495Z,9.53
2019-03-28T12:27:51.871Z,9.40
2019-03-28T12:30:54.217Z,7.80
2019-03-28T12:33:57.566Z,8.97
2019-03-28T12:36:41.856Z,10.10
2019-03-28T12:42:39.343Z,9.27
2019-03-28T12:45:41.887Z,10.03
2019-03-28T12:48:16.527Z,9.00
2019-03-28T12:54:05.480Z,10.07
2019-03-28T12:56:49.547Z,9.37
2019-03-28T12:59:22.461Z,9.07
2019-03-28T13:05:08.560Z,8.10
2019-03-28T13:07:53.597Z,6.50
2019-03-28T13:10:38.368Z,6.67
2019-03-28T13:13:12.562Z,9.07
2019-03-28T13:16:03.755Z,10.70
2019-03-28T13:19:06.400Z,6.47
2019-03-28T13:21:50.278Z,29.83
2019-03-28T13:27:26.435Z,4.83
2019-03-28T13:30:36.360Z,4.40
2019-03-28T13:36:12.601Z,5.10
2019-03-28T13:39:14.826Z,5.43
2019-03-28T13:42:00.199Z,5.93
2019-03-28T13:47:17.795Z,6.10
2019-03-28T13:53:23.902Z,5.60
2019-03-28T13:58:53.127Z,5.83
2019-03-28T14:01:43.802Z,6.83
2019-03-28T14:04:45.934Z,7.33
2019-03-28T14:07:18.845Z,6.03
2019-03-28T14:13:08.995Z,5.57
2019-03-28T14:15:53.779Z,5.70
2019-03-28T14:18:29.224Z,4.50
2019-03-28T14:21:20.476Z,4.80
2019-03-28T14:24:11.968Z,4.67
2019-03-28T14:27:06.013Z,4.00
2019-03-28T14:35:10.047Z,5.60
2019-03-28T14:38:12.367Z,5.37
2019-03-28T14:40:51.017Z,5.93
2019-03-28T14:43:43.962Z,6.03
2019-03-28T14:46:55.700Z,5.40
2019-03-28T14:55:33.900Z,4.80
2019-03-28T15:07:22.735Z,5.30
2019-03-28T15:10:13.926Z,5.20
2019-03-28T15:13:10.331Z,5.63
2019-03-28T15:16:02.914Z,5.80
2019-03-28T15:21:58.624Z,5.57
2019-03-28T15:25:08.635Z,5.60
2019-03-28T15:28:00.196Z,6.43
2019-03-28T15:36:35.305Z,7.20
2019-03-28T15:45:09.263Z,7.47
2019-03-28T15:47:53.873Z,7.20
2019-03-28T15:54:01.616Z,8.00
2019-03-28T15:56:36.382Z,8.73
2019-03-28T16:02:15.277Z,8.20
2019-03-28T16:05:17.594Z,8.73
2019-03-28T16:08:02.335Z,8.87
2019-03-28T16:10:37.501Z,9.10
2019-03-28T16:13:09.433Z,8.07
2019-03-28T16:16:11.444Z,7.60
2019-03-28T16:18:55.828Z,8.00
2019-03-28T16:24:15.646Z,6.77
2019-03-28T16:27:17.935Z,7.70
2019-03-28T16:29:50.504Z,8.63
2019-03-28T16:35:57.532Z,8.50
2019-03-28T16:38:32.912Z,9.93
2019-03-28T16:41:25.109Z,9.20
2019-03-28T16:46:43.485Z,9.30
2019-03-28T16:52:50.669Z,8.80
2019-03-28T16:55:37.023Z,7.80
2019-03-28T17:01:15.576Z,9.27
2019-03-28T17:04:19.683Z,9.30
2019-03-28T17:13:34.312Z,8.60
2019-03-28T17:16:19.914Z,10.57
2019-03-28T17:21:50.454Z,11.07
2019-03-28T17:24:35.878Z,12.57
2019-03-28T17:27:26.873Z,10.60
2019-03-28T17:30:18.142Z,12.30
2019-03-28T17:33:12.160Z,10.93
2019-03-28T17:35:46.396Z,9.67
2019-03-28T17:38:31.662Z,10.87
2019-03-28T17:41:22.480Z,10.70
2019-03-28T17:44:14.677Z,10.00
2019-03-28T17:46:57.125Z,10.40
2019-03-28T17:49:51.761Z,10.17
2019-03-28T17:58:22.086Z,16.93
2019-03-28T18:01:15.080Z,12.13
2019-03-28T18:04:06.532Z,63.23
2019-03-28T18:15:44.935Z,10.10
2019-03-28T18:18:47.293Z,10.77
2019-03-28T18:21:20.892Z,10.50
2019-03-28T18:26:57.825Z,10.50
2019-03-28T18:30:07.845Z,11.47
2019-03-28T18:33:18.396Z,10.30
2019-03-28T18:36:10.528Z,9.00
2019-03-28T18:38:54.238Z,10.90
2019-03-28T18:41:39.064Z,10.90
2019-03-28T18:44:17.036Z,10.63
2019-03-28T18:47:19.498Z,10.87
2019-03-28T18:50:04.067Z,10.80
2019-03-28T18:52:38.409Z,11.23
2019-03-28T18:55:44.075Z,10.53
2019-03-28T19:01:03.061Z,9.97
2019-03-28T19:03:54.302Z,9.93
2019-03-28T19:06:45.445Z,10.93
2019-03-28T19:09:36.622Z,9.80
2019-03-28T19:12:39.076Z,10.20
2019-03-28T19:18:38.592Z,9.93
2019-03-28T19:21:40.615Z,11.43
2019-03-28T19:24:13.121Z,10.50
2019-03-28T19:27:04.323Z,11.00
2019-03-28T19:30:06.803Z,10.50
2019-03-28T19:32:40.395Z,10.90
2019-03-28T19:35:42.805Z,10.37
2019-03-28T19:38:15.133Z,11.07
2019-03-28T19:41:06.291Z,12.40
2019-03-28T19:47:34.234Z,12.90
2019-03-28T19:53:35.411Z,13.90
2019-03-28T19:56:28.093Z,15.37
2019-03-28T19:59:13.373Z,14.03
2019-03-28T20:01:46.430Z,15.50
2019-03-28T20:04:37.724Z,15.60
2019-03-28T20:10:16.694Z,16.83
2019-03-28T20:12:59.257Z,15.90
2019-03-28T20:15:50.452Z,16.47
2019-03-28T20:18:43.186Z,16.80
2019-03-28T20:21:25.183Z,17.50
2019-03-28T20:24:16.405Z,17.27
2019-03-28T20:27:07.581Z,17.13
2019-03-28T20:30:37.563Z,17.10
2019-03-28T20:33:28.755Z,17.90
2019-03-28T20:39:16.269Z,17.73
2019-03-28T20:41:49.582Z,17.10
2019-03-28T20:44:52.214Z,17.67
2019-03-28T20:47:24.901Z,17.10
2019-03-28T20:53:33.758Z,18.10
2019-03-28T20:59:05.035Z,18.47
2019-03-28T21:01:37.707Z,18.70
2019-03-28T21:04:31.710Z,18.90
2019-03-28T21:09:55.528Z,18.37
2019-03-28T21:13:05.781Z,19.27
2019-03-28T21:18:40.693Z,19.10
2019-03-28T21:27:38.640Z,18.87
2019-03-28T21:30:46.732Z,18.70
2019-03-28T21:33:37.610Z,18.77
2019-03-28T21:42:09.833Z,18.50
2019-03-28T21:48:00.343Z,18.97
2019-03-28T21:50:45.329Z,18.80
2019-03-28T21:53:19.921Z,19.67
2019-03-28T21:56:01.653Z,18.47
2019-03-28T21:59:03.973Z,18.70
2019-03-28T22:01:48.589Z,20.17
2019-03-28T22:16:14.609Z,17.90
2019-03-28T22:19:08.453Z,17.80
2019-03-28T22:22:10.762Z,18.93
2019-03-28T22:24:54.034Z,18.37
2019-03-28T22:27:26.486Z,20.00
2019-03-28T22:33:35.281Z,20.40
2019-03-28T22:38:53.032Z,20.60
2019-03-28T22:41:44.209Z,19.73
2019-03-28T22:44:46.168Z,23.50
2019-03-28T22:50:15.014Z,21.00
2019-03-28T22:53:25.500Z,20.50
2019-03-28T22:56:27.315Z,21.37
2019-03-28T22:59:00.286Z,21.67
2019-03-28T23:01:43.044Z,22.93
2019-03-28T23:04:54.741Z,21.43
2019-03-28T23:13:37.172Z,23.53
2019-03-28T23:16:28.850Z,23.37
2019-03-28T23:22:15.629Z,21.10
2019-03-28T23:25:03.886Z,21.47
2019-03-28T23:27:48.384Z,23.43
2019-03-28T23:39:00.344Z,23.10
2019-03-28T23:41:45.644Z,23.90
2019-03-28T23:47:24.022Z,22.50
2019-03-28T23:53:30.315Z,21.20
2019-03-28T23:56:32.767Z,21.40
2019-03-28T23:59:17.965Z,21.63
